Airfield :
LOGIN :

Register | Disclaimer

   EN    FR    IT 

 










Legend :    VFR   Marginal VFR   IFR   Intensive IFR   Very Intensive IFR
Visi :
Ceiling :
>= 8 km
>= 3000ft
5 to 8 km
1000 to 3000 ft
1500m to 5 km
500 to 1000 ft
800 to 1500m
200 to 500 ft
< 800m
< 200 ft
Symbols :   Thunderstorms  Fog  Heavy snow  Heavy precipitations  Wind > 20 kt
SIGMETs :     Misc.  Thunderstorms  Icing  Turbulence  Mountain Waves  Volcanic Ashes






- Airport Elevation : 526 ft
- IATA code : LTN


EGGW - London Luton

CURRENT METAR :
  • 050150Z AUTO 20004KT 9999 NCD 13/12 Q1010

EXPIRED METARs :
  • 050120Z AUTO 19004KT 160V220 9999 NCD 13/12 Q1010
  • 050050Z AUTO 19004KT 9999 NCD 14/12 Q1011
  • 050020Z AUTO 19004KT 9999 NCD 14/12 Q1011
  • 042350Z AUTO 18004KT 9999 NCD 14/12 Q1011
  • 042320Z AUTO 19004KT 9999 NCD 14/12 Q1011

TAF AMD TAF EGGW
Valid from the 05 at 00:00 until the 06 at 00:00 UTC


042341Z 0500/0524 13006KT 9999 SCT030
PROB30 0500/0505 8000
PROB30
TEMPO 0504/0508 BKN010
BECMG 0505/0508 19012KT
PROB30
TEMPO 0510/0513 9000 -SHRA
PROB30
TEMPO 0512/0518 18015G25KT
TEMPO 0513/0524 7000 RA SHRA BKN012
PROB30
TEMPO 0516/0522 4000 +SHRA BKN008
PROB30
TEMPO 0522/0524 BKN007
ATIS : +44 1582 395 204



MET'MAP, your aeronautical weather chart ! - Copyright ORBIFLY December 2007 - Disclaimer

ORBIFLY MET'MAP TEAM :

Programming & Development : Alexandra Zaïnal
Concept & original design : Baudouin d'Aumeries
Assistance for programming : Marc-Olivier Méhu
Technical & hardware support : Manuel Goepfert

Contact : metmap@orbifly.com




SOURCES & CREDITS :

   NOAA